Time;durP1;ratioP1;P1;durP2;ratioP2;P2;SDS_P1;SDS_P2;PMS_P1;PMS_P2;Temp;Humidity;BMP_temperature;BMP_pressure;BME280_temperature;BME280_humidity;BME280_pressure;Samples;Min_cycle;Max_cycle;Signal;HPM_P1;HPM_P2
2022/09/01 00:00:49;;;;;;;;;;;;;;;21.07;88.35;99434.06;5074771;28;19927;-43
2022/09/01 00:03:15;;;;;;;;;;;;;;;20.75;87.06;99439.69;5073586;28;19920;-44
2022/09/01 00:05:40;;;;;;;;;;;;;;;20.86;88.42;99439.81;5072451;28;19926;-44
2022/09/01 00:08:06;;;;;;;;;;;;;;;21.18;86.97;99436.78;5074211;28;20772;-44
2022/09/01 00:10:31;;;;;;;;;;;;;;;20.47;89.28;99443.28;5073998;28;20295;-44
2022/09/01 00:12:56;;;;;;;;;;;;;;;21.02;87.38;99438.78;5057454;28;20311;-45
2022/09/01 00:15:22;;;;;;;;;;;;;;;20.70;89.07;99439.19;5072552;28;19920;-44
2022/09/01 00:17:47;;;;;;;;;;;;;;;20.77;87.86;99435.19;5075507;28;19919;-44
2022/09/01 00:20:12;;;;;;;;;;;;;;;20.44;89.23;99444.34;5076323;28;20010;-44
2022/09/01 00:22:38;;;;;;;;;;;;;;;20.69;88.37;99442.75;5074911;28;19916;-44
2022/09/01 00:25:04;;;;;;;;;;;;;;;20.30;89.11;99439.19;5071721;28;19920;-44
2022/09/01 00:27:31;;;;;;;;;;;;;;;20.41;89.75;99448.91;5072540;28;19970;-44
2022/09/01 00:29:56;;;;;;;;;;;;;;;20.62;89.44;99444.94;5074303;28;19931;-44
2022/09/01 00:32:21;;;;;;;;;;;;;;;20.70;88.63;99433.94;5072925;28;19924;-45
2022/09/01 00:34:47;;;;;;;;;;;;;;;20.36;90.42;99440.53;5073191;28;20457;-43
2022/09/01 00:37:12;;;;;;;;;;;;;;;20.47;90.44;99444.13;5072029;28;19946;-43
2022/09/01 00:39:37;;;;;;;;;;;;;;;20.50;88.94;99437.00;5072411;28;19960;-44
2022/09/01 00:42:03;;;;;;;;;;;;;;;20.47;90.39;99444.13;5075273;28;20396;-45
2022/09/01 00:44:28;;;;;;;;;;;;;;;20.56;91.03;99441.84;5073963;28;19924;-45
2022/09/01 00:46:54;;;;;;;;;;;;;;;20.71;88.52;99440.88;5072745;28;19977;-44
2022/09/01 00:49:22;;;;;;;;;;;;;;;21.82;84.06;99433.22;5074096;28;19931;-43
2022/09/01 00:51:51;;;;;;;;;;;;;;;22.82;77.43;99429.38;5073446;28;19967;-44
2022/09/01 00:54:22;;;;;;;;;;;;;;;22.84;75.87;99427.47;5073127;28;20414;-45
2022/09/01 00:56:47;;;;;;;;;;;;;;;22.89;76.47;99424.50;5054503;28;20034;-44
2022/09/01 00:59:13;;;;;;;;;;;;;;;22.79;75.69;99428.78;5072183;28;20016;-43
2022/09/01 01:01:39;;;;;;;;;;;;;;;22.74;75.86;99426.50;5055680;28;20387;-43
2022/09/01 01:04:05;;;;;;;;;;;;;;;22.16;78.82;99443.91;5072864;28;19920;-43
2022/09/01 01:06:31;;;;;;;;;;;;;;;20.59;86.42;99452.13;5073369;28;20361;-43
2022/09/01 01:08:59;;;;;;;;;;;;;;;21.22;84.30;99442.66;5055603;28;19927;-44
2022/09/01 01:11:25;;;;;;;;;;;;;;;21.99;79.50;99440.75;5074267;28;19920;-44
2022/09/01 01:13:58;;;;;;;;;;;;;;;22.22;78.32;99440.88;5074663;28;19961;-43
2022/09/01 01:16:25;;;;;;;;;;;;;;;21.55;79.71;99436.88;5053932;28;20578;-44
2022/09/01 01:18:50;;;;;;;;;;;;;;;22.51;77.84;99426.44;5055056;28;19924;-43
2022/09/01 01:24:08;;;;;;;;;;;;;;;22.35;76.53;99436.38;5073982;28;19922;-43
2022/09/01 01:26:33;;;;;;;;;;;;;;;22.86;74.15;99424.72;5071938;28;19985;-43
2022/09/01 01:29:01;;;;;;;;;;;;;;;22.15;76.07;99435.22;5072015;28;19966;-43
2022/09/01 01:31:27;;;;;;;;;;;;;;;22.45;75.74;99436.56;5073080;28;19928;-44
2022/09/01 01:33:53;;;;;;;;;;;;;;;22.27;76.17;99438.75;5074196;28;19924;-43
2022/09/01 01:36:31;;;;;;;;;;;;;;;22.46;75.01;99433.81;5070445;28;20253;-44
2022/09/01 01:39:00;;;;;;;;;;;;;;;22.43;75.70;99425.34;5053398;28;20015;-43
2022/09/01 01:41:26;;;;;;;;;;;;;;;21.95;75.78;99438.44;5072324;28;19920;-43
2022/09/01 01:43:51;;;;;;;;;;;;;;;20.93;81.72;99435.00;5071607;28;19949;-43
2022/09/01 01:46:16;;;;;;;;;;;;;;;20.14;86.10;99443.69;5069545;28;19924;-43
2022/09/01 01:48:42;;;;;;;;;;;;;;;20.21;88.26;99443.22;5073985;28;20679;-44
2022/09/01 01:51:08;;;;;;;;;;;;;;;20.50;87.53;99442.25;5071691;28;19923;-44
2022/09/01 01:53:33;;;;;;;;;;;;;;;20.52;86.37;99435.13;5071362;28;20011;-43
2022/09/01 01:55:59;;;;;;;;;;;;;;;20.37;88.42;99437.84;5041795;28;19966;-44
2022/09/01 01:58:27;;;;;;;;;;;;;;;20.06;90.64;99444.19;5071110;28;19920;-44
2022/09/01 02:00:53;;;;;;;;;;;;;;;20.08;89.82;99437.09;5072531;28;19951;-44
2022/09/01 02:03:20;;;;;;;;;;;;;;;19.56;92.26;99435.97;5052844;28;20006;-43
2022/09/01 02:05:46;;;;;;;;;;;;;;;20.33;89.52;99436.34;5072367;28;20104;-44
2022/09/01 02:08:14;;;;;;;;;;;;;;;20.46;87.74;99428.53;5073636;28;19924;-44
2022/09/01 02:10:41;;;;;;;;;;;;;;;20.27;87.87;99434.13;5070369;28;19931;-43
2022/09/01 02:13:06;;;;;;;;;;;;;;;19.86;90.33;99440.25;5054717;28;19924;-44
2022/09/01 02:15:44;;;;;;;;;;;;;;;19.62;90.71;99440.81;5071676;28;19979;-45
2022/09/01 02:18:27;;;;;;;;;;;;;;;20.84;87.13;99431.22;5072965;28;19970;-43
2022/09/01 02:20:53;;;;;;;;;;;;;;;20.16;87.33;99441.81;5071746;28;19927;-43
2022/09/01 02:23:22;;;;;;;;;;;;;;;21.21;85.39;99433.97;5073300;28;19927;-44
2022/09/01 02:25:47;;;;;;;;;;;;;;;21.31;83.11;99445.47;5070433;28;19920;-44
2022/09/01 02:28:17;;;;;;;;;;;;;;;20.39;88.75;99445.56;5070895;28;19936;-43
2022/09/01 02:30:46;;;;;;;;;;;;;;;19.79;89.61;99446.78;5072315;28;19935;-43
2022/09/01 02:33:17;;;;;;;;;;;;;;;19.45;90.96;99451.47;5072055;28;21167;-43
2022/09/01 02:35:46;;;;;;;;;;;;;;;19.89;90.67;99442.69;5070952;28;19920;-43
2022/09/01 02:38:12;;;;;;;;;;;;;;;21.18;85.52;99439.41;5071688;28;20428;-43
2022/09/01 02:40:39;;;;;;;;;;;;;;;21.20;84.46;99442.75;5052003;28;19920;-43
2022/09/01 02:43:04;;;;;;;;;;;;;;;20.58;87.54;99448.69;5054301;28;19924;-43
2022/09/01 02:45:31;;;;;;;;;;;;;;;21.15;84.56;99437.00;5070798;28;19924;-44
2022/09/01 02:47:56;;;;;;;;;;;;;;;21.39;82.72;99433.63;5053737;28;19926;-43
2022/09/01 02:50:23;;;;;;;;;;;;;;;20.95;83.35;99432.28;5053812;28;19928;-43
2022/09/01 02:52:51;;;;;;;;;;;;;;;21.34;82.36;99428.69;5072730;28;19920;-43
2022/09/01 02:55:19;;;;;;;;;;;;;;;21.38;82.20;99429.34;5073183;28;20697;-43
2022/09/01 02:57:47;;;;;;;;;;;;;;;21.06;84.19;99424.53;5069795;28;20011;-43
2022/09/01 03:00:21;;;;;;;;;;;;;;;21.05;83.89;99430.72;5070265;28;19928;-43
2022/09/01 03:02:51;;;;;;;;;;;;;;;21.06;83.74;99430.59;5071871;28;19916;-43
2022/09/01 03:05:18;;;;;;;;;;;;;;;20.57;86.38;99443.53;5070407;28;20598;-43
2022/09/01 03:07:43;;;;;;;;;;;;;;;20.49;87.16;99444.03;5070950;28;20645;-44
2022/09/01 03:10:08;;;;;;;;;;;;;;;19.44;91.53;99453.25;5070776;28;19920;-44
2022/09/01 03:12:34;;;;;;;;;;;;;;;19.68;90.66;99455.25;5070887;28;20043;-43
2022/09/01 03:14:59;;;;;;;;;;;;;;;19.17;93.36;99458.38;5070601;28;20636;-43
2022/09/01 03:17:24;;;;;;;;;;;;;;;18.97;93.12;99454.34;5071914;28;19994;-44
2022/09/01 03:19:50;;;;;;;;;;;;;;;19.20;92.77;99449.50;5068811;28;20567;-43
2022/09/01 03:22:16;;;;;;;;;;;;;;;19.14;93.34;99449.91;5052297;28;20365;-43
2022/09/01 03:24:41;;;;;;;;;;;;;;;19.56;94.45;99454.25;5072686;28;19924;-43
2022/09/01 03:27:06;;;;;;;;;;;;;;;20.00;89.41;99447.19;5073239;28;19981;-43
2022/09/01 03:29:32;;;;;;;;;;;;;;;20.39;86.80;99443.81;5075632;28;19954;-44
2022/09/01 03:31:57;;;;;;;;;;;;;;;19.96;85.89;99443.97;5057864;28;19924;-43
2022/09/01 03:34:22;;;;;;;;;;;;;;;19.91;88.49;99446.03;5076752;28;19927;-44
2022/09/01 03:36:50;;;;;;;;;;;;;;;19.18;93.84;99457.47;5073394;28;19920;-43
2022/09/01 03:39:17;;;;;;;;;;;;;;;18.94;91.45;99453.69;5075442;28;19993;-43
2022/09/01 03:41:42;;;;;;;;;;;;;;;20.01;92.15;99441.88;5076449;28;19916;-43
2022/09/01 03:44:09;;;;;;;;;;;;;;;19.66;89.63;99441.47;5075314;28;19923;-43
2022/09/01 03:46:35;;;;;;;;;;;;;;;19.42;92.28;99443.81;5074710;28;19924;-43
2022/09/01 03:49:02;;;;;;;;;;;;;;;20.18;90.77;99437.34;5075950;28;19920;-43
2022/09/01 03:51:29;;;;;;;;;;;;;;;21.04;84.74;99432.50;5056077;28;20401;-44
2022/09/01 03:53:56;;;;;;;;;;;;;;;20.86;83.05;99434.56;5074824;28;19973;-43
2022/09/01 03:56:22;;;;;;;;;;;;;;;19.89;85.61;99447.91;5074612;28;19985;-43
2022/09/01 03:58:48;;;;;;;;;;;;;;;19.55;89.80;99446.53;5074558;28;19923;-43
2022/09/01 04:01:14;;;;;;;;;;;;;;;20.39;88.24;99446.41;5075259;28;20411;-43
2022/09/01 04:03:40;;;;;;;;;;;;;;;20.31;85.03;99446.06;5074400;28;19927;-44
2022/09/01 04:06:06;;;;;;;;;;;;;;;19.97;87.80;99450.84;5074707;28;20096;-43
2022/09/01 04:08:31;;;;;;;;;;;;;;;19.77;90.02;99451.28;5073612;28;20067;-44
2022/09/01 04:10:59;;;;;;;;;;;;;;;19.49;91.83;99455.56;5073128;28;20265;-43
2022/09/01 04:13:29;;;;;;;;;;;;;;;20.12;89.33;99445.59;5071218;28;19920;-44
2022/09/01 04:15:55;;;;;;;;;;;;;;;19.57;89.61;99445.50;5055808;28;20253;-44
2022/09/01 04:18:20;;;;;;;;;;;;;;;20.20;86.44;99435.47;5073022;28;20435;-43
2022/09/01 04:20:48;;;;;;;;;;;;;;;20.66;84.16;99432.47;5060677;28;19920;-43
2022/09/01 04:23:15;;;;;;;;;;;;;;;20.47;84.02;99444.13;5055594;28;19921;-43
2022/09/01 04:25:41;;;;;;;;;;;;;;;20.54;85.02;99441.09;5075147;28;19923;-43
2022/09/01 04:28:13;;;;;;;;;;;;;;;20.19;85.45;99439.88;5074819;28;19916;-43
2022/09/01 04:30:41;;;;;;;;;;;;;;;19.96;85.42;99443.97;5075463;28;20601;-43
2022/09/01 04:33:06;;;;;;;;;;;;;;;19.19;89.78;99451.28;5074463;28;20345;-44
2022/09/01 04:35:36;;;;;;;;;;;;;;;18.69;93.41;99457.69;5072289;28;19970;-44
2022/09/01 04:38:01;;;;;;;;;;;;;;;17.46;99.77;99463.66;5076491;28;19920;-44
2022/09/01 04:40:27;;;;;;;;;;;;;;;17.50;100.00;99468.59;5076753;28;19915;-44
2022/09/01 04:42:52;;;;;;;;;;;;;;;17.73;100.00;99462.16;5077577;28;19912;-44
2022/09/01 04:45:20;;;;;;;;;;;;;;;16.71;100.00;99469.13;5076997;28;19964;-44
2022/09/01 04:47:46;;;;;;;;;;;;;;;16.89;100.00;99463.97;5077193;28;20021;-43
2022/09/01 04:50:13;;;;;;;;;;;;;;;17.51;100.00;99459.84;5077565;28;20448;-45
2022/09/01 04:52:40;;;;;;;;;;;;;;;17.02;100.00;99456.41;5056739;28;20852;-43
2022/09/01 04:55:07;;;;;;;;;;;;;;;17.05;100.00;99457.06;5072482;28;20393;-43
2022/09/01 04:57:36;;;;;;;;;;;;;;;16.92;100.00;99461.22;5037540;28;19924;-43
2022/09/01 05:00:01;;;;;;;;;;;;;;;17.07;100.00;99450.03;5056981;28;20007;-43
2022/09/01 05:02:27;;;;;;;;;;;;;;;17.37;100.00;99451.13;5070601;28;19920;-43
2022/09/01 05:04:53;;;;;;;;;;;;;;;17.48;100.00;99448.78;5073535;28;19927;-43
2022/09/01 05:07:20;;;;;;;;;;;;;;;17.50;100.00;99452.97;5055543;28;20341;-43
2022/09/01 05:09:45;;;;;;;;;;;;;;;18.65;100.00;99435.31;5075681;28;19923;-43
2022/09/01 05:12:10;;;;;;;;;;;;;;;19.27;98.10;99426.47;5076447;28;19920;-43
2022/09/01 05:14:37;;;;;;;;;;;;;;;19.86;93.85;99421.94;5074194;28;20027;-44
2022/09/01 05:17:09;;;;;;;;;;;;;;;20.19;90.90;99420.72;5074442;28;19920;-43
2022/09/01 05:19:34;;;;;;;;;;;;;;;20.63;88.29;99409.13;5075062;28;19923;-43
2022/09/01 05:22:00;;;;;;;;;;;;;;;20.73;86.84;99417.19;5074341;28;19920;-44
2022/09/01 05:24:29;;;;;;;;;;;;;;;20.58;87.05;99426.91;5073531;28;19938;-43
2022/09/01 05:26:54;;;;;;;;;;;;;;;20.27;88.21;99416.69;5056440;28;20595;-43
2022/09/01 05:29:19;;;;;;;;;;;;;;;20.53;86.06;99418.50;5074216;28;19916;-43
2022/09/01 05:31:45;;;;;;;;;;;;;;;20.69;86.83;99424.44;5074628;28;20775;-44
2022/09/01 05:34:11;;;;;;;;;;;;;;;20.88;85.03;99427.47;5074339;28;19916;-43
2022/09/01 05:36:38;;;;;;;;;;;;;;;20.66;85.13;99429.84;5054287;28;19920;-43
2022/09/01 05:39:04;;;;;;;;;;;;;;;20.70;85.25;99430.50;5072599;28;19916;-43
2022/09/01 05:41:29;;;;;;;;;;;;;;;20.06;87.31;99433.75;5056730;28;19920;-44
2022/09/01 05:43:55;;;;;;;;;;;;;;;19.90;89.21;99436.50;5074293;28;19969;-43
2022/09/01 05:46:22;;;;;;;;;;;;;;;20.44;87.36;99433.03;5072014;28;19927;-43
2022/09/01 05:48:50;;;;;;;;;;;;;;;20.98;85.69;99426.84;5073237;28;19916;-44
2022/09/01 05:51:18;;;;;;;;;;;;;;;21.52;83.59;99429.22;5073143;28;19934;-43
2022/09/01 05:53:45;;;;;;;;;;;;;;;21.74;83.07;99422.47;5073559;28;20737;-44
2022/09/01 05:56:12;;;;;;;;;;;;;;;21.69;81.93;99426.25;5073266;28;20006;-43
2022/09/01 05:58:38;;;;;;;;;;;;;;;22.04;81.16;99433.38;5074212;28;19916;-43
2022/09/01 06:01:04;;;;;;;;;;;;;;;21.93;80.65;99433.31;5073985;28;19916;-43
2022/09/01 06:03:30;;;;;;;;;;;;;;;21.90;81.47;99436.16;5072479;28;19916;-44
2022/09/01 06:05:57;;;;;;;;;;;;;;;21.24;82.57;99438.16;5073111;28;19942;-44
2022/09/01 06:08:24;;;;;;;;;;;;;;;21.77;81.11;99436.19;5055155;28;19962;-45
2022/09/01 06:10:49;;;;;;;;;;;;;;;21.78;80.22;99435.25;5071991;28;20050;-44
2022/09/01 06:13:15;;;;;;;;;;;;;;;21.99;80.23;99430.25;5073582;28;19920;-44
2022/09/01 06:15:41;;;;;;;;;;;;;;;21.97;78.89;99426.91;5071164;28;20033;-44
2022/09/01 06:18:07;;;;;;;;;;;;;;;22.08;80.27;99432.19;5069637;28;19916;-43
2022/09/01 06:20:33;;;;;;;;;;;;;;;22.61;78.59;99425.75;5071790;28;20428;-43
2022/09/01 06:22:58;;;;;;;;;;;;;;;21.85;80.88;99435.63;5072898;28;19920;-44
2022/09/01 06:25:25;;;;;;;;;;;;;;;20.99;84.47;99436.38;5074294;28;20289;-44
2022/09/01 06:27:51;;;;;;;;;;;;;;;21.06;84.56;99435.84;5054436;28;19955;-44
2022/09/01 06:30:19;;;;;;;;;;;;;;;21.26;84.04;99439.72;5056522;28;20039;-44
2022/09/01 06:32:45;;;;;;;;;;;;;;;22.20;81.30;99433.09;5073413;28;19938;-44
2022/09/01 06:35:11;;;;;;;;;;;;;;;22.23;78.37;99426.81;5073929;28;19922;-44
2022/09/01 06:37:37;;;;;;;;;;;;;;;23.21;75.27;99424.66;5055717;28;19916;-44
2022/09/01 06:40:02;;;;;;;;;;;;;;;23.53;73.19;99421.31;5072295;28;20632;-45
2022/09/01 06:42:28;;;;;;;;;;;;;;;22.42;77.17;99436.75;5072102;28;19974;-44
2022/09/01 06:44:53;;;;;;;;;;;;;;;23.17;73.81;99428.47;5072951;28;19994;-44
2022/09/01 06:47:18;;;;;;;;;;;;;;;23.44;73.83;99427.28;5073089;28;19974;-44
2022/09/01 06:49:43;;;;;;;;;;;;;;;23.55;72.80;99429.91;5074758;28;20365;-43
2022/09/01 06:52:12;;;;;;;;;;;;;;;23.91;71.51;99427.97;5073779;28;19967;-45
2022/09/01 06:54:38;;;;;;;;;;;;;;;23.32;70.65;99435.19;5073804;28;19977;-43
2022/09/01 06:57:03;;;;;;;;;;;;;;;23.29;74.03;99439.84;5072675;28;19920;-45
2022/09/01 06:59:30;;;;;;;;;;;;;;;22.05;75.41;99440.28;5076761;28;20564;-44
2022/09/01 07:02:00;;;;;;;;;;;;;;;22.11;77.61;99442.47;5078891;28;19916;-44
2022/09/01 07:04:28;;;;;;;;;;;;;;;22.73;75.71;99441.41;5078173;28;20358;-44
2022/09/01 07:06:53;;;;;;;;;;;;;;;23.86;72.63;99430.97;5077912;28;20009;-44
2022/09/01 07:09:18;;;;;;;;;;;;;;;23.92;72.36;99434.88;5077289;28;20418;-44
2022/09/01 07:11:44;;;;;;;;;;;;;;;22.78;74.23;99448.94;5059451;28;19959;-44
2022/09/01 07:14:10;;;;;;;;;;;;;;;22.70;71.42;99444.28;5077437;28;19915;-45
2022/09/01 07:16:39;;;;;;;;;;;;;;;21.81;80.39;99455.16;5075898;28;20482;-44
2022/09/01 07:19:05;;;;;;;;;;;;;;;22.37;77.61;99455.47;5078531;28;19923;-45
2022/09/01 07:21:33;;;;;;;;;;;;;;;24.08;72.71;99445.00;5077387;28;19916;-44
2022/09/01 07:24:00;;;;;;;;;;;;;;;25.08;67.43;99439.38;5078144;28;19939;-44
2022/09/01 07:26:26;;;;;;;;;;;;;;;24.52;65.84;99444.03;5076866;28;19916;-44
2022/09/01 07:28:51;;;;;;;;;;;;;;;23.17;71.87;99449.50;5069487;28;19927;-45
2022/09/01 07:31:21;;;;;;;;;;;;;;;24.38;70.15;99447.78;5077400;28;19940;-44
2022/09/01 07:33:48;;;;;;;;;;;;;;;23.20;71.11;99456.34;5075398;28;20756;-44
2022/09/01 07:36:16;;;;;;;;;;;;;;;22.95;74.60;99456.38;5076321;28;19927;-44
2022/09/01 07:38:42;;;;;;;;;;;;;;;23.57;71.29;99449.84;5075517;28;20061;-45
2022/09/01 07:41:08;;;;;;;;;;;;;;;24.16;71.16;99448.69;5076959;28;19920;-45
2022/09/01 07:43:33;;;;;;;;;;;;;;;23.74;69.56;99451.19;5077157;28;20357;-44
2022/09/01 07:45:58;;;;;;;;;;;;;;;23.88;70.52;99449.25;5076544;28;19916;-44
2022/09/01 07:48:25;;;;;;;;;;;;;;;24.44;69.09;99446.44;5077265;28;19920;-45
2022/09/01 07:50:52;;;;;;;;;;;;;;;23.58;71.50;99448.06;5076137;28;19935;-44
2022/09/01 07:53:21;;;;;;;;;;;;;;;24.56;68.82;99444.59;5076007;28;19924;-44
2022/09/01 07:55:49;;;;;;;;;;;;;;;24.41;66.64;99446.69;5076529;28;19916;-45
2022/09/01 07:58:14;;;;;;;;;;;;;;;25.09;69.90;99446.31;5075686;28;19912;-45
2022/09/01 08:00:44;;;;;;;;;;;;;;;24.68;70.38;99450.63;5076182;28;19950;-44
2022/09/01 08:03:09;;;;;;;;;;;;;;;25.29;68.81;99450.75;5076315;28;19916;-44
2022/09/01 08:05:34;;;;;;;;;;;;;;;25.44;68.54;99452.06;5074525;28;19919;-44
2022/09/01 08:08:00;;;;;;;;;;;;;;;25.18;67.98;99445.53;5074257;28;19916;-44
2022/09/01 08:10:25;;;;;;;;;;;;;;;23.74;74.08;99455.56;5073102;28;19927;-44
2022/09/01 08:12:50;;;;;;;;;;;;;;;24.75;73.26;99450.03;5057781;28;19927;-44
2022/09/01 08:15:16;;;;;;;;;;;;;;;26.20;64.10;99442.81;5074766;28;19916;-44
2022/09/01 08:17:41;;;;;;;;;;;;;;;26.29;64.44;99442.81;5075871;28;20777;-45
2022/09/01 08:20:08;;;;;;;;;;;;;;;27.61;58.94;99440.28;5076812;28;19920;-44
2022/09/01 08:22:34;;;;;;;;;;;;;;;26.28;60.31;99446.44;5074769;28;19920;-45
2022/09/01 08:24:59;;;;;;;;;;;;;;;26.44;61.00;99445.03;5075956;28;19916;-44
2022/09/01 08:27:24;;;;;;;;;;;;;;;25.71;67.56;99455.91;5056852;28;19986;-44
2022/09/01 08:29:49;;;;;;;;;;;;;;;26.24;60.30;99446.84;5076746;28;19943;-45
2022/09/01 08:32:15;;;;;;;;;;;;;;;26.67;61.24;99446.44;5075243;28;19970;-45
2022/09/01 08:34:42;;;;;;;;;;;;;;;25.71;62.93;99453.25;5073592;28;20447;-44
2022/09/01 08:37:07;;;;;;;;;;;;;;;26.67;62.53;99446.44;5076254;28;19916;-44
2022/09/01 08:39:32;;;;;;;;;;;;;;;26.13;59.62;99453.09;5076070;28;19969;-44
2022/09/01 08:42:04;;;;;;;;;;;;;;;26.18;62.58;99445.56;5075984;28;19969;-45
2022/09/01 08:44:49;;;;;;;;;;;;;;;28.16;56.37;99432.28;5057419;28;19917;-45
2022/09/01 08:47:15;;;;;;;;;;;;;;;26.76;62.21;99449.22;5057311;28;19916;-45
2022/09/01 08:49:44;;;;;;;;;;;;;;;26.52;62.69;99442.50;5040958;28;19927;-46
2022/09/01 08:52:28;;;;;;;;;;;;;;;26.03;64.76;99452.25;5055963;28;19927;-52
2022/09/01 08:54:58;;;;;;;;;;;;;;;26.69;62.01;99441.84;5075430;28;19965;-45
2022/09/01 08:57:34;;;;;;;;;;;;;;;25.74;65.59;99439.78;5056742;28;20324;-46
2022/09/01 08:59:59;;;;;;;;;;;;;;;26.29;63.40;99450.72;5075445;28;19916;-46
2022/09/01 09:02:43;;;;;;;;;;;;;;;26.83;60.18;99445.03;5075433;28;19938;-45
2022/09/01 09:05:27;;;;;;;;;;;;;;;25.75;65.85;99449.41;5075158;28;19927;-47
2022/09/01 09:08:05;;;;;;;;;;;;;;;26.58;66.51;99446.44;5074920;28;19920;-45
2022/09/01 09:10:42;;;;;;;;;;;;;;;27.06;58.42;99437.59;5056375;28;20391;-48
2022/09/01 09:13:12;;;;;;;;;;;;;;;26.23;63.59;99440.75;5075627;28;19931;-47
2022/09/01 09:15:38;;;;;;;;;;;;;;;26.14;61.82;99446.84;5057146;28;20381;-45
2022/09/01 09:18:11;;;;;;;;;;;;;;;26.38;60.25;99440.31;5074644;28;19916;-45
2022/09/01 09:20:36;;;;;;;;;;;;;;;27.42;51.60;99438.59;5052435;28;19920;-44
2022/09/01 09:23:03;;;;;;;;;;;;;;;26.41;56.81;99451.44;5044511;28;20038;-45
2022/09/01 09:25:30;;;;;;;;;;;;;;;28.08;52.31;99429.59;5056890;28;19924;-45
2022/09/01 09:27:55;;;;;;;;;;;;;;;25.69;57.39;99436.72;5073994;28;19960;-46
2022/09/01 09:30:22;;;;;;;;;;;;;;;28.17;49.25;99425.19;5073429;28;20993;-45
2022/09/01 09:32:59;;;;;;;;;;;;;;;27.66;53.98;99429.25;5056358;28;19988;-46
2022/09/01 09:35:29;;;;;;;;;;;;;;;27.22;51.15;99423.78;5071785;28;19916;-48
2022/09/01 09:37:54;;;;;;;;;;;;;;;25.39;61.79;99422.63;5074173;28;19989;-46
2022/09/01 09:40:23;;;;;;;;;;;;;;;26.63;56.45;99423.06;5073475;28;20307;-47
2022/09/01 09:42:52;;;;;;;;;;;;;;;27.01;54.35;99416.03;5055227;28;20675;-46
2022/09/01 09:45:26;;;;;;;;;;;;;;;28.10;47.61;99413.53;5072689;28;20278;-45
2022/09/01 09:47:52;;;;;;;;;;;;;;;26.80;52.38;99418.88;5072403;28;20405;-45
2022/09/01 09:50:22;;;;;;;;;;;;;;;25.82;54.04;99424.13;5072144;28;20004;-46
2022/09/01 09:52:48;;;;;;;;;;;;;;;27.06;50.04;99406.69;5070513;28;19919;-47
2022/09/01 09:55:24;;;;;;;;;;;;;;;27.67;46.88;99396.53;5073615;28;19916;-46
2022/09/01 09:57:51;;;;;;;;;;;;;;;27.12;49.89;99407.94;5071098;28;19978;-47
2022/09/01 10:00:21;;;;;;;;;;;;;;;27.26;47.05;99404.00;5052579;28;19959;-47
2022/09/01 10:02:50;;;;;;;;;;;;;;;28.56;44.91;99398.38;5052875;28;19920;-47
2022/09/01 10:05:34;;;;;;;;;;;;;;;27.94;42.25;99388.59;5071341;28;19917;-46
2022/09/01 10:07:59;;;;;;;;;;;;;;;29.58;42.73;99394.94;5073998;28;19916;-46
2022/09/01 10:10:28;;;;;;;;;;;;;;;28.45;44.59;99393.31;5054265;28;19955;-48
2022/09/01 10:12:53;;;;;;;;;;;;;;;27.47;45.70;99390.53;5071797;28;20680;-46
2022/09/01 10:15:20;;;;;;;;;;;;;;;27.75;44.61;99393.97;5073483;28;19995;-47
2022/09/01 10:17:45;;;;;;;;;;;;;;;27.79;42.15;99383.94;5055569;28;19920;-45
2022/09/01 10:20:16;;;;;;;;;;;;;;;27.18;43.22;99388.81;5054373;28;19981;-46
2022/09/01 10:22:41;;;;;;;;;;;;;;;25.92;49.28;99394.31;5071941;28;19975;-46
2022/09/01 10:25:08;;;;;;;;;;;;;;;27.03;45.05;99387.66;5074604;28;20407;-46
2022/09/01 10:27:37;;;;;;;;;;;;;;;27.02;45.33;99389.44;5037881;28;20908;-46
2022/09/01 10:30:07;;;;;;;;;;;;;;;27.89;40.85;99380.25;5054905;28;20612;-45
2022/09/01 10:32:36;;;;;;;;;;;;;;;29.15;39.33;99378.22;5055289;28;19924;-46
2022/09/01 10:35:02;;;;;;;;;;;;;;;29.35;37.68;99377.94;5054705;28;20284;-46
2022/09/01 10:37:27;;;;;;;;;;;;;;;27.49;40.08;99384.09;5055761;28;19913;-47
2022/09/01 10:40:11;;;;;;;;;;;;;;;27.97;39.86;99376.03;5074319;28;19916;-46
2022/09/01 10:42:36;;;;;;;;;;;;;;;28.84;39.56;99366.41;5077050;28;19961;-48
2022/09/01 10:45:02;;;;;;;;;;;;;;;27.65;38.66;99372.88;5075704;28;19924;-46
2022/09/01 10:47:28;;;;;;;;;;;;;;;28.28;40.25;99379.09;5072588;28;20872;-46
2022/09/01 10:49:54;;;;;;;;;;;;;;;27.40;41.59;99374.41;5054719;28;20013;-48
2022/09/01 10:52:37;;;;;;;;;;;;;;;28.34;41.31;99374.00;5071722;28;20404;-47
2022/09/01 10:55:03;;;;;;;;;;;;;;;28.84;39.48;99364.59;5073699;28;19938;-48
2022/09/01 10:57:34;;;;;;;;;;;;;;;28.48;40.02;99361.22;5053288;28;20372;-46
2022/09/01 11:00:29;;;;;;;;;;;;;;;27.66;40.96;99357.81;5076449;28;19943;-46
2022/09/01 11:03:12;;;;;;;;;;;;;;;29.74;39.21;99362.31;5056281;28;20574;-45
2022/09/01 11:05:52;;;;;;;;;;;;;;;31.02;34.26;99345.78;5074194;28;20407;-46
2022/09/01 11:08:21;;;;;;;;;;;;;;;31.77;34.72;99347.03;5074621;28;19972;-45
2022/09/01 11:11:13;;;;;;;;;;;;;;;28.49;37.43;99357.59;5056292;28;19920;-46
2022/09/01 11:13:42;;;;;;;;;;;;;;;28.51;36.00;99364.41;5068745;28;20742;-46
2022/09/01 11:16:23;;;;;;;;;;;;;;;29.56;35.67;99356.25;5054245;28;19920;-46
2022/09/01 11:18:49;;;;;;;;;;;;;;;28.80;37.31;99357.13;5073761;28;19931;-46
2022/09/01 11:21:15;;;;;;;;;;;;;;;30.04;34.79;99357.38;5056561;28;19940;-46
2022/09/01 11:23:41;;;;;;;;;;;;;;;29.91;34.68;99352.53;5074942;28;19916;-48
2022/09/01 11:26:25;;;;;;;;;;;;;;;28.85;38.34;99360.97;5072281;28;19927;-46
2022/09/01 11:28:50;;;;;;;;;;;;;;;30.18;36.04;99358.53;5073756;28;20304;-46
2022/09/01 11:31:18;;;;;;;;;;;;;;;30.42;35.70;99345.22;5056385;28;19920;-45
2022/09/01 11:33:49;;;;;;;;;;;;;;;29.52;36.51;99354.94;5040798;28;20108;-46
2022/09/01 11:36:19;;;;;;;;;;;;;;;28.00;40.76;99365.13;5072269;28;20023;-46
2022/09/01 11:38:54;;;;;;;;;;;;;;;27.74;37.84;99349.97;5044326;28;20815;-46
2022/09/01 11:41:25;;;;;;;;;;;;;;;27.78;40.73;99355.78;5073599;28;19916;-46
2022/09/01 11:43:51;;;;;;;;;;;;;;;28.13;37.90;99358.47;5073558;28;19916;-46
2022/09/01 11:46:21;;;;;;;;;;;;;;;28.13;39.53;99354.97;5056456;28;19920;-47
2022/09/01 11:48:46;;;;;;;;;;;;;;;30.40;36.31;99357.88;5057622;28;19916;-46
2022/09/01 11:51:12;;;;;;;;;;;;;;;30.50;35.02;99351.56;5041861;28;19970;-46
2022/09/01 11:53:37;;;;;;;;;;;;;;;30.60;34.28;99357.50;5076304;28;19942;-46
2022/09/01 11:56:13;;;;;;;;;;;;;;;28.81;37.38;99364.91;5075260;28;19963;-46
2022/09/01 11:58:38;;;;;;;;;;;;;;;29.66;36.37;99354.31;5075801;28;20083;-46
2022/09/01 12:01:12;;;;;;;;;;;;;;;29.29;34.95;99354.72;5076573;28;19912;-47
2022/09/01 12:03:37;;;;;;;;;;;;;;;29.29;35.74;99341.47;5077231;28;19923;-47
2022/09/01 12:06:04;;;;;;;;;;;;;;;30.16;34.64;99352.56;5076118;28;19955;-47
2022/09/01 12:08:30;;;;;;;;;;;;;;;28.87;37.83;99350.19;5075925;28;19920;-46
2022/09/01 12:11:09;;;;;;;;;;;;;;;30.02;33.95;99338.94;5075976;28;20019;-45
2022/09/01 12:13:34;;;;;;;;;;;;;;;28.07;35.65;99337.06;5057572;28;19923;-45
2022/09/01 12:16:00;;;;;;;;;;;;;;;29.10;35.68;99338.09;5075497;28;19916;-46
2022/09/01 12:18:27;;;;;;;;;;;;;;;29.29;35.09;99336.97;5057452;28;19997;-48
2022/09/01 12:20:54;;;;;;;;;;;;;;;31.27;33.53;99328.69;5076779;28;19924;-47
2022/09/01 12:23:36;;;;;;;;;;;;;;;31.39;32.82;99331.78;5057702;28;19916;-46
2022/09/01 12:26:11;;;;;;;;;;;;;;;31.22;32.85;99331.03;5075225;28;19969;-47
2022/09/01 12:28:40;;;;;;;;;;;;;;;30.34;31.19;99326.66;5076334;28;19916;-46
2022/09/01 12:31:06;;;;;;;;;;;;;;;30.90;34.51;99336.50;5057884;28;20681;-46
2022/09/01 12:33:31;;;;;;;;;;;;;;;29.72;32.95;99326.28;5055811;28;19930;-46
2022/09/01 12:36:13;;;;;;;;;;;;;;;31.65;32.53;99312.84;5074320;28;19916;-46
2022/09/01 12:38:38;;;;;;;;;;;;;;;31.99;33.16;99316.94;5075585;28;19916;-47
2022/09/01 12:41:20;;;;;;;;;;;;;;;32.17;32.48;99323.78;5075658;28;19988;-46
2022/09/01 12:43:48;;;;;;;;;;;;;;;29.98;32.14;99323.50;5057511;28;19916;-49
2022/09/01 12:46:13;;;;;;;;;;;;;;;30.64;30.98;99310.97;5056323;28;19977;-47
2022/09/01 12:48:39;;;;;;;;;;;;;;;31.97;31.68;99308.28;5056029;28;19962;-46
2022/09/01 12:51:18;;;;;;;;;;;;;;;32.17;30.46;99307.81;5075381;28;19920;-48